RKPK/PUS METAR and TAF weather

Enter ICAO airport designator
Station Type Date Time Source
RKPK METAR 2020/01/26 00:00 UTC NOAA

RKPK 260000Z 31005KT CAVOK 07/03 Q1026


Station Type Date Time Source
RKPK Decoded METAR 2020/01/26 00:00 UTC NOAA

Pusan / Kimhae International Airport, Korea, South (RKPK) 35-11N 128-56E 6M
Jan 25, 2020 - 07:00 PM EST / 2020.01.26 0000 UTC
Wind: from the NW (310 degrees) at 6 MPH (5 KT):0
Visibility: greater than 7 mile(s):0
Temperature: 44 F (7 C)
Dew Point: 37 F (3 C)
Relative Humidity: 75%
Pressure (altimeter): 30.30 in. Hg (1026 hPa)
ob: RKPK 260000Z 31005KT CAVOK 07/03 Q1026
cycle: 0

Station Type Date Time Source
RKPK TAF 2020/01/25 18:05 UTC NOAA

TAF RKPK 251700Z 2518/2624 03006KT 9999 SCT030 BKN120 BKN200 TN06/2521Z TX10/2606Z

Example: see airport list